LWC weather

Lawrence Municipal Airport
Lawrence, Kansas, United States

Public forecast

Using degrees Fahrenheit for public forecast. Weather courtesy of forecast.io.

METAR (pilot weather report)

Retrieved 2019/08/23 11:52 UTC (20 minutes ago):

KLWC 231152Z AUTO 09005KT 10SM CLR 22/19 A3003 RMK AO2 SLP162 7//// T02220194 10239 20222 51014

TAF (pilot weather forecast)

Closest forecast is New Century Aircenter Airport, 18.7 nm (34.6 km) SE. Retrieved 2019/08/23 12:39 UTC (0 seconds ago):

TAF KIXD 231135Z 2312/2412 09006KT P6SM SCT020 BKN050 FM231500 09006KT P6SM SCT030